Time,TemperatureF,DewpointF,PressureIn,WindDirection,WindDirectionDegrees,WindSpeedMPH,WindSpeedGustMPH,Humidity,HourlyPrecipIn,Conditions,Clouds,dailyrainin,SoftwareType,DateUTC
2013-05-01 00:00:00,63.5,34.5,29.52,SW,225,0.0,0.0,34,0.00,,,0.00,WUHU216HW,2013-05-01 07:00:00,
2013-05-01 00:05:00,63.4,34.3,29.51,SW,225,0.0,1.1,34,0.00,,,0.00,WUHU216HW,2013-05-01 07:05:00,
2013-05-01 00:10:00,63.2,34.1,29.52,SW,225,0.0,1.1,34,0.00,,,0.00,WUHU216HW,2013-05-01 07:10:00,
2013-05-01 00:15:00,63.0,34.0,29.52,South,180,0.7,1.8,34,0.00,,,0.00,WUHU216HW,2013-05-01 07:15:00,
2013-05-01 00:20:00,62.8,34.6,29.52,NW,315,0.0,1.8,35,0.00,,,0.00,WUHU216HW,2013-05-01 07:20:00,
2013-05-01 00:25:00,62.6,35.1,29.52,SW,225,0.9,0.9,36,0.00,,,0.00,WUHU216HW,2013-05-01 07:25:00,
2013-05-01 00:30:00,62.5,33.5,29.52,WSW,248,0.4,2.0,34,0.00,,,0.00,WUHU216HW,2013-05-01 07:30:00,
2013-05-01 00:35:00,62.6,32.9,29.52,WSW,248,0.9,2.0,33,0.00,,,0.00,WUHU216HW,2013-05-01 07:35:00,
2013-05-01 00:40:00,62.6,33.7,29.52,NNW,338,0.2,1.8,34,0.00,,,0.00,WUHU216HW,2013-05-01 07:40:00,
2013-05-01 00:45:00,62.6,33.7,29.52,SW,225,1.1,2.5,34,0.00,,,0.00,WUHU216HW,2013-05-01 07:45:00,
2013-05-01 00:50:00,62.5,32.8,29.52,SSW,203,0.9,2.5,33,0.00,,,0.00,WUHU216HW,2013-05-01 07:50:00,
2013-05-01 00:55:00,62.6,32.2,29.52,SSW,203,0.4,1.8,32,0.00,,,0.00,WUHU216HW,2013-05-01 07:55:00,
2013-05-01 01:00:00,62.8,32.4,29.52,SSW,203,0.7,2.0,32,0.00,,,0.00,WUHU216HW,2013-05-01 08:00:00,
2013-05-01 01:05:00,62.8,32.4,29.52,SSW,203,0.9,2.0,32,0.00,,,0.00,WUHU216HW,2013-05-01 08:05:00,
2013-05-01 01:10:00,63.2,30.3,29.52,SSW,203,1.8,3.8,29,0.00,,,0.00,WUHU216HW,2013-05-01 08:10:00,
2013-05-01 01:15:00,63.5,30.6,29.52,NNW,338,0.2,3.8,29,0.00,,,0.00,WUHU216HW,2013-05-01 08:15:00,
2013-05-01 01:20:00,63.7,30.8,29.52,South,180,2.5,2.9,29,0.00,,,0.00,WUHU216HW,2013-05-01 08:20:00,
2013-05-01 01:25:00,64.1,31.1,29.52,SW,225,1.1,2.9,29,0.00,,,0.00,WUHU216HW,2013-05-01 08:25:00,
2013-05-01 01:30:00,64.1,30.1,29.52,South,180,1.8,1.8,28,0.00,,,0.00,WUHU216HW,2013-05-01 08:30:00,
2013-05-01 01:35:00,64.1,30.1,29.52,West,270,1.1,4.0,28,0.00,,,0.00,WUHU216HW,2013-05-01 08:35:00,
2013-05-01 01:40:00,64.3,30.2,29.52,NNW,338,0.4,4.0,28,0.00,,,0.00,WUHU216HW,2013-05-01 08:40:00,
2013-05-01 01:45:00,64.6,31.6,29.52,NNW,338,0.4,4.0,29,0.00,,,0.00,WUHU216HW,2013-05-01 08:45:00,
2013-05-01 01:50:00,64.8,28.7,29.52,NNW,338,0.4,2.5,26,0.00,,,0.00,WUHU216HW,2013-05-01 08:50:00,
2013-05-01 01:55:00,65.2,30.1,29.52,ESE,113,0.7,2.5,27,0.00,,,0.00,WUHU216HW,2013-05-01 08:55:00,
2013-05-01 02:00:00,65.5,29.3,29.53,NNW,338,0.0,2.9,26,0.00,,,0.00,WUHU216HW,2013-05-01 09:00:00,
2013-05-01 02:05:00,65.5,28.4,29.53,North,0,1.3,2.9,25,0.00,,,0.00,WUHU216HW,2013-05-01 09:05:00,
2013-05-01 02:10:00,65.9,30.7,29.53,SE,135,0.0,1.8,27,0.00,,,0.00,WUHU216HW,2013-05-01 09:10:00,
2013-05-01 02:15:00,65.7,29.5,29.53,SW,225,0.9,1.8,26,0.00,,,0.00,WUHU216HW,2013-05-01 09:15:00,
2013-05-01 02:20:00,65.5,31.4,29.53,SW,225,0.0,1.3,28,0.00,,,0.00,WUHU216HW,2013-05-01 09:20:00,
2013-05-01 02:25:00,65.2,31.1,29.53,North,0,0.0,3.4,28,0.00,,,0.00,WUHU216HW,2013-05-01 09:25:00,
2013-05-01 02:30:00,65.0,30.9,29.53,NNW,338,0.0,3.4,28,0.00,,,0.00,WUHU216HW,2013-05-01 09:30:00,
2013-05-01 02:35:00,64.8,30.8,29.53,SW,225,0.7,1.1,28,0.00,,,0.00,WUHU216HW,2013-05-01 09:35:00,
2013-05-01 02:40:00,64.6,30.6,29.53,SW,225,0.7,1.1,28,0.00,,,0.00,WUHU216HW,2013-05-01 09:40:00,
2013-05-01 02:45:00,64.4,31.4,29.53,WSW,248,0.0,1.1,29,0.00,,,0.00,WUHU216HW,2013-05-01 09:45:00,
2013-05-01 02:50:00,64.4,31.4,29.53,WSW,248,0.0,0.7,29,0.00,,,0.00,WUHU216HW,2013-05-01 09:50:00,
2013-05-01 03:00:00,63.4,30.4,29.53,SSW,203,0.4,0.4,29,0.00,,,0.00,WUHU216HW,2013-05-01 10:00:00,
2013-05-01 03:05:00,63.0,31.2,29.53,SW,225,0.0,1.6,30,0.00,,,0.00,WUHU216HW,2013-05-01 10:05:00,
2013-05-01 03:10:00,62.8,31.0,29.54,SW,225,0.0,1.6,30,0.00,,,0.00,WUHU216HW,2013-05-01 10:10:00,
2013-05-01 03:15:00,62.6,30.8,29.54,SW,225,0.4,0.4,30,0.00,,,0.00,WUHU216HW,2013-05-01 10:15:00,
2013-05-01 03:20:00,62.5,30.6,29.54,SW,225,0.4,0.4,30,0.00,,,0.00,WUHU216HW,2013-05-01 10:20:00,
2013-05-01 03:25:00,62.3,31.1,29.54,SW,225,0.7,0.7,31,0.00,,,0.00,WUHU216HW,2013-05-01 10:25:00,
2013-05-01 03:30:00,61.9,30.9,29.54,SW,225,0.9,1.1,31,0.00,,,0.00,WUHU216HW,2013-05-01 10:30:00,
2013-05-01 03:35:00,61.7,30.7,29.54,SSW,203,0.0,2.0,31,0.00,,,0.00,WUHU216HW,2013-05-01 10:35:00,
2013-05-01 03:40:00,61.4,31.1,29.54,SSW,203,0.0,2.0,32,0.00,,,0.00,WUHU216HW,2013-05-01 10:40:00,
2013-05-01 03:45:00,60.8,30.6,29.54,SSW,203,0.4,1.3,32,0.00,,,0.00,WUHU216HW,2013-05-01 10:45:00,
2013-05-01 03:50:00,60.7,29.7,29.54,NW,315,0.2,1.3,31,0.00,,,0.00,WUHU216HW,2013-05-01 10:50:00,
2013-05-01 03:55:00,60.8,29.9,29.55,NW,315,0.4,1.1,31,0.00,,,0.00,WUHU216HW,2013-05-01 10:55:00,
2013-05-01 04:00:00,60.8,29.9,29.55,WSW,248,0.7,0.7,31,0.00,,,0.00,WUHU216HW,2013-05-01 11:00:00,
2013-05-01 04:05:00,60.8,30.6,29.55,WSW,248,0.4,0.7,32,0.00,,,0.00,WUHU216HW,2013-05-01 11:05:00,
2013-05-01 04:10:00,60.7,30.4,29.55,NW,315,0.0,1.1,32,0.00,,,0.00,WUHU216HW,2013-05-01 11:10:00,
2013-05-01 04:15:00,60.3,30.2,29.56,WNW,293,0.7,1.1,32,0.00,,,0.00,WUHU216HW,2013-05-01 11:15:00,
2013-05-01 04:20:00,59.9,30.6,29.56,WSW,248,0.9,0.9,33,0.00,,,0.00,WUHU216HW,2013-05-01 11:20:00,
2013-05-01 04:25:00,59.6,30.2,29.56,SW,225,0.0,0.9,33,0.00,,,0.00,WUHU216HW,2013-05-01 11:25:00,
2013-05-01 04:30:00,59.4,30.9,29.56,SW,225,0.0,0.9,34,0.00,,,0.00,WUHU216HW,2013-05-01 11:30:00,
2013-05-01 04:35:00,59.0,31.2,29.56,SW,225,0.0,0.7,35,0.00,,,0.00,WUHU216HW,2013-05-01 11:35:00,
2013-05-01 04:40:00,58.7,31.6,29.56,SSW,203,0.0,0.9,36,0.00,,,0.00,WUHU216HW,2013-05-01 11:40:00,
2013-05-01 04:45:00,58.7,31.6,29.55,SSW,203,0.0,0.9,36,0.00,,,0.00,WUHU216HW,2013-05-01 11:45:00,
2013-05-01 04:50:00,58.3,31.3,29.56,NNW,338,0.0,0.9,36,0.00,,,0.00,WUHU216HW,2013-05-01 11:50:00,
2013-05-01 04:55:00,58.3,32.0,29.56,WSW,248,0.0,1.1,37,0.00,,,0.00,WUHU216HW,2013-05-01 11:55:00,
2013-05-01 05:00:00,58.0,32.4,29.56,WSW,248,0.2,1.1,38,0.00,,,0.00,WUHU216HW,2013-05-01 12:00:00,
2013-05-01 05:05:00,57.6,32.0,29.56,SW,225,0.4,0.7,38,0.00,,,0.00,WUHU216HW,2013-05-01 12:05:00,
2013-05-01 05:10:00,57.6,31.3,29.56,NW,315,0.0,1.8,37,0.00,,,0.00,WUHU216HW,2013-05-01 12:10:00,
2013-05-01 05:15:00,57.6,31.3,29.56,NW,315,0.0,1.8,37,0.00,,,0.00,WUHU216HW,2013-05-01 12:15:00,
2013-05-01 05:20:00,57.6,31.3,29.56,West,270,0.4,0.4,37,0.00,,,0.00,WUHU216HW,2013-05-01 12:20:00,
2013-05-01 05:25:00,57.4,31.9,29.57,WSW,248,1.6,1.6,38,0.00,,,0.00,WUHU216HW,2013-05-01 12:25:00,
2013-05-01 05:30:00,57.2,31.7,29.57,NW,315,0.0,1.6,38,0.00,,,0.00,WUHU216HW,2013-05-01 12:30:00,
2013-05-01 05:35:00,56.9,31.4,29.57,WSW,248,0.0,1.6,38,0.00,,,0.00,WUHU216HW,2013-05-01 12:35:00,
2013-05-01 05:40:00,56.9,31.4,29.57,WSW,248,0.0,1.3,38,0.00,,,0.00,WUHU216HW,2013-05-01 12:40:00,
2013-05-01 05:45:00,56.7,31.2,29.57,West,270,0.0,1.1,38,0.00,,,0.00,WUHU216HW,2013-05-01 12:45:00,
2013-05-01 05:50:00,56.5,31.1,29.57,WSW,248,0.4,1.1,38,0.00,,,0.00,WUHU216HW,2013-05-01 12:50:00,
2013-05-01 05:55:00,56.5,31.1,29.57,West,270,0.0,1.1,38,0.00,,,0.00,WUHU216HW,2013-05-01 12:55:00,
2013-05-01 06:00:00,56.5,31.1,29.58,West,270,0.2,0.9,38,0.00,,,0.00,WUHU216HW,2013-05-01 13:00:00,
2013-05-01 06:05:00,56.2,30.8,29.58,NW,315,0.0,1.1,38,0.00,,,0.00,WUHU216HW,2013-05-01 13:05:00,
2013-05-01 06:10:00,56.2,30.1,29.58,West,270,0.7,1.1,37,0.00,,,0.00,WUHU216HW,2013-05-01 13:10:00,
2013-05-01 06:15:00,56.2,30.1,29.59,NNW,338,0.0,1.1,37,0.00,,,0.00,WUHU216HW,2013-05-01 13:15:00,
2013-05-01 06:20:00,56.0,29.9,29.59,WSW,248,0.2,1.1,37,0.00,,,0.00,WUHU216HW,2013-05-01 13:20:00,
2013-05-01 06:25:00,56.0,29.2,29.59,WSW,248,0.4,1.1,36,0.00,,,0.00,WUHU216HW,2013-05-01 13:25:00,
2013-05-01 06:30:00,56.0,29.9,29.59,WSW,248,0.2,1.1,37,0.00,,,0.00,WUHU216HW,2013-05-01 13:30:00,
2013-05-01 06:35:00,55.8,29.7,29.59,WSW,248,0.2,1.1,37,0.00,,,0.00,WUHU216HW,2013-05-01 13:35:00,
2013-05-01 06:40:00,55.8,29.7,29.60,WSW,248,0.2,0.7,37,0.00,,,0.00,WUHU216HW,2013-05-01 13:40:00,
2013-05-01 06:45:00,55.8,30.4,29.60,NNW,338,0.0,1.1,38,0.00,,,0.00,WUHU216HW,2013-05-01 13:45:00,
2013-05-01 06:50:00,55.8,30.4,29.60,WSW,248,0.0,1.1,38,0.00,,,0.00,WUHU216HW,2013-05-01 13:50:00,
2013-05-01 06:55:00,55.8,30.4,29.61,WSW,248,0.0,1.1,38,0.00,,,0.00,WUHU216HW,2013-05-01 13:55:00,
2013-05-01 07:00:00,56.0,31.3,29.61,West,270,0.7,0.9,39,0.00,,,0.00,WUHU216HW,2013-05-01 14:00:00,
2013-05-01 07:05:00,56.0,31.3,29.61,WNW,293,0.2,1.1,39,0.00,,,0.00,WUHU216HW,2013-05-01 14:05:00,
2013-05-01 07:10:00,56.2,31.4,29.61,SSW,203,0.7,1.1,39,0.00,,,0.00,WUHU216HW,2013-05-01 14:10:00,
2013-05-01 07:15:00,56.3,32.3,29.61,SSW,203,0.0,0.9,40,0.00,,,0.00,WUHU216HW,2013-05-01 14:15:00,
2013-05-01 07:20:00,56.5,32.5,29.61,WSW,248,0.0,1.1,40,0.00,,,0.00,WUHU216HW,2013-05-01 14:20:00,
2013-05-01 07:25:00,56.9,33.4,29.61,North,0,0.0,1.1,41,0.00,,,0.00,WUHU216HW,2013-05-01 14:25:00,
2013-05-01 07:30:00,57.1,34.1,29.61,WSW,248,0.0,0.4,42,0.00,,,0.00,WUHU216HW,2013-05-01 14:30:00,
2013-05-01 07:35:00,57.2,34.8,29.61,WSW,248,0.0,0.4,43,0.00,,,0.00,WUHU216HW,2013-05-01 14:35:00,
2013-05-01 07:40:00,57.2,34.3,29.61,WSW,248,0.4,1.1,42,0.00,,,0.00,WUHU216HW,2013-05-01 14:40:00,
2013-05-01 07:45:00,57.6,33.5,29.62,West,270,0.0,1.6,40,0.00,,,0.00,WUHU216HW,2013-05-01 14:45:00,
2013-05-01 07:50:00,58.0,34.4,29.62,West,270,0.0,1.6,41,0.00,,,0.00,WUHU216HW,2013-05-01 14:50:00,
2013-05-01 07:55:00,58.3,35.8,29.62,West,270,0.0,0.0,43,0.00,,,0.00,WUHU216HW,2013-05-01 14:55:00,
2013-05-01 08:00:00,58.5,36.0,29.63,WSW,248,0.0,0.7,43,0.00,,,0.00,WUHU216HW,2013-05-01 15:00:00,
2013-05-01 08:05:00,58.9,35.2,29.63,WSW,248,0.0,0.7,41,0.00,,,0.00,WUHU216HW,2013-05-01 15:05:00,
2013-05-01 08:10:00,59.4,35.1,29.63,WSW,248,0.9,0.9,40,0.00,,,0.00,WUHU216HW,2013-05-01 15:10:00,
2013-05-01 08:15:00,60.1,34.3,29.63,WSW,248,0.0,1.6,38,0.00,,,0.00,WUHU216HW,2013-05-01 15:15:00,
2013-05-01 08:20:00,60.8,34.9,29.63,SSW,203,0.0,1.6,38,0.00,,,0.00,WUHU216HW,2013-05-01 15:20:00,
2013-05-01 08:25:00,61.4,34.7,29.63,SSW,203,0.0,1.1,37,0.00,,,0.00,WUHU216HW,2013-05-01 15:25:00,
2013-05-01 08:30:00,61.7,34.3,29.64,WSW,248,0.4,0.7,36,0.00,,,0.00,WUHU216HW,2013-05-01 15:30:00,
2013-05-01 08:35:00,62.1,33.2,29.64,West,270,0.2,1.3,34,0.00,,,0.00,WUHU216HW,2013-05-01 15:35:00,
2013-05-01 08:40:00,62.3,32.6,29.63,SSW,203,0.4,1.8,33,0.00,,,0.00,WUHU216HW,2013-05-01 15:40:00,
2013-05-01 08:45:00,63.0,31.2,29.64,South,180,2.2,3.4,30,0.00,,,0.00,WUHU216HW,2013-05-01 15:45:00,
2013-05-01 08:50:00,63.7,30.8,29.64,WSW,248,0.0,3.4,29,0.00,,,0.00,WUHU216HW,2013-05-01 15:50:00,
2013-05-01 08:55:00,64.3,32.2,29.64,NNW,338,1.8,2.2,30,0.00,,,0.00,WUHU216HW,2013-05-01 15:55:00,
2013-05-01 09:00:00,64.4,32.4,29.64,NNW,338,0.7,2.0,30,0.00,,,0.00,WUHU216HW,2013-05-01 16:00:00,
2013-05-01 09:05:00,64.8,31.8,29.64,North,0,0.4,2.0,29,0.00,,,0.00,WUHU216HW,2013-05-01 16:05:00,
2013-05-01 09:10:00,65.3,32.2,29.64,West,270,0.2,1.6,29,0.00,,,0.00,WUHU216HW,2013-05-01 16:10:00,
2013-05-01 09:15:00,65.5,31.4,29.65,North,0,0.0,1.1,28,0.00,,,0.00,WUHU216HW,2013-05-01 16:15:00,
2013-05-01 09:20:00,65.7,29.5,29.65,SW,225,0.0,0.9,26,0.00,,,0.00,WUHU216HW,2013-05-01 16:20:00,
2013-05-01 09:25:00,65.9,30.7,29.65,SW,225,0.0,0.7,27,0.00,,,0.00,WUHU216HW,2013-05-01 16:25:00,
2013-05-01 09:30:00,66.1,29.8,29.65,West,270,0.0,0.7,26,0.00,,,0.00,WUHU216HW,2013-05-01 16:30:00,
2013-05-01 09:35:00,66.2,30.0,29.65,NW,315,1.1,1.1,26,0.00,,,0.00,WUHU216HW,2013-05-01 16:35:00,
2013-05-01 09:40:00,67.0,29.6,29.65,SSE,158,1.8,2.2,25,0.00,,,0.00,WUHU216HW,2013-05-01 16:40:00,
2013-05-01 09:45:00,67.7,30.3,29.65,SE,135,0.4,2.2,25,0.00,,,0.00,WUHU216HW,2013-05-01 16:45:00,
2013-05-01 09:50:00,68.2,29.7,29.65,West,270,1.1,1.8,24,0.00,,,0.00,WUHU216HW,2013-05-01 16:50:00,
2013-05-01 09:55:00,68.8,30.2,29.65,North,0,3.1,3.1,24,0.00,,,0.00,WUHU216HW,2013-05-01 16:55:00,
2013-05-01 10:00:00,68.9,30.2,29.65,West,270,0.7,3.1,24,0.00,,,0.00,WUHU216HW,2013-05-01 17:00:00,
2013-05-01 10:05:00,69.3,30.6,29.65,SE,135,0.2,3.1,24,0.00,,,0.00,WUHU216HW,2013-05-01 17:05:00,
2013-05-01 10:10:00,69.8,29.0,29.65,North,0,2.5,2.9,22,0.00,,,0.00,WUHU216HW,2013-05-01 17:10:00,
2013-05-01 10:15:00,70.0,29.2,29.66,North,0,0.7,3.4,22,0.00,,,0.00,WUHU216HW,2013-05-01 17:15:00,
2013-05-01 10:20:00,70.2,29.4,29.65,North,0,1.8,4.5,22,0.00,,,0.00,WUHU216HW,2013-05-01 17:20:00,
2013-05-01 10:25:00,70.2,29.4,29.66,North,0,0.7,5.4,22,0.00,,,0.00,WUHU216HW,2013-05-01 17:25:00,
2013-05-01 10:30:00,70.4,29.4,29.66,West,270,1.1,5.4,22,0.00,,,0.00,WUHU216HW,2013-05-01 17:30:00,
2013-05-01 10:35:00,70.7,29.8,29.66,NNE,23,1.3,4.7,22,0.00,,,0.00,WUHU216HW,2013-05-01 17:35:00,
2013-05-01 10:40:00,70.9,29.9,29.66,ENE,68,1.1,2.5,22,0.00,,,0.00,WUHU216HW,2013-05-01 17:40:00,
2013-05-01 10:45:00,71.3,30.3,29.66,South,180,0.7,2.5,22,0.00,,,0.00,WUHU216HW,2013-05-01 17:45:00,
2013-05-01 10:50:00,71.6,30.5,29.66,SW,225,0.7,2.2,22,0.00,,,0.00,WUHU216HW,2013-05-01 17:50:00,
2013-05-01 10:55:00,71.8,29.6,29.66,NNW,338,2.7,4.0,21,0.00,,,0.00,WUHU216HW,2013-05-01 17:55:00,
2013-05-01 11:00:00,72.0,29.8,29.66,ENE,68,0.2,5.4,21,0.00,,,0.00,WUHU216HW,2013-05-01 18:00:00,
2013-05-01 11:05:00,72.4,31.2,29.66,North,0,0.4,5.4,22,0.00,,,0.00,WUHU216HW,2013-05-01 18:05:00,
2013-05-01 11:10:00,72.5,30.2,29.67,SW,225,1.6,5.4,21,0.00,,,0.00,WUHU216HW,2013-05-01 18:10:00,
2013-05-01 11:15:00,73.1,30.8,29.67,NNE,23,1.8,5.4,21,0.00,,,0.00,WUHU216HW,2013-05-01 18:15:00,
2013-05-01 11:20:00,73.4,31.1,29.67,NNW,338,2.2,4.5,21,0.00,,,0.00,WUHU216HW,2013-05-01 18:20:00,
2013-05-01 11:25:00,73.8,31.3,29.67,NNW,338,2.0,4.5,21,0.00,,,0.00,WUHU216HW,2013-05-01 18:25:00,
2013-05-01 11:30:00,74.3,31.8,29.67,North,0,1.3,3.4,21,0.00,,,0.00,WUHU216HW,2013-05-01 18:30:00,
2013-05-01 11:35:00,74.7,32.1,29.67,West,270,1.1,3.4,21,0.00,,,0.00,WUHU216HW,2013-05-01 18:35:00,
2013-05-01 11:40:00,75.4,32.7,29.67,North,0,2.5,3.4,21,0.00,,,0.00,WUHU216HW,2013-05-01 18:40:00,
2013-05-01 11:45:00,76.1,33.3,29.67,North,0,1.1,2.5,21,0.00,,,0.00,WUHU216HW,2013-05-01 18:45:00,
2013-05-01 11:50:00,76.7,33.7,29.67,WSW,248,0.4,3.1,21,0.00,,,0.00,WUHU216HW,2013-05-01 18:50:00,
2013-05-01 11:55:00,77.6,31.7,29.67,NNW,338,2.2,3.4,19,0.00,,,0.00,WUHU216HW,2013-05-01 18:55:00,
2013-05-01 12:00:00,78.3,33.9,29.67,NNE,23,0.4,4.3,20,0.00,,,0.00,WUHU216HW,2013-05-01 19:00:00,
2013-05-01 12:05:00,78.8,32.7,29.67,West,270,0.9,4.3,19,0.00,,,0.00,WUHU216HW,2013-05-01 19:05:00,
2013-05-01 12:10:00,79.6,33.4,29.67,SSW,203,1.3,2.5,19,0.00,,,0.00,WUHU216HW,2013-05-01 19:10:00,
2013-05-01 12:15:00,79.9,33.7,29.67,NE,45,0.9,2.9,19,0.00,,,0.00,WUHU216HW,2013-05-01 19:15:00,
2013-05-01 12:20:00,80.3,32.3,29.67,North,0,2.9,2.9,18,0.00,,,0.00,WUHU216HW,2013-05-01 19:20:00,
2013-05-01 12:25:00,81.0,33.0,29.67,SSE,158,0.9,3.1,18,0.00,,,0.00,WUHU216HW,2013-05-01 19:25:00,
2013-05-01 12:30:00,81.2,33.0,29.67,NNW,338,1.6,3.1,18,0.00,,,0.00,WUHU216HW,2013-05-01 19:30:00,
2013-05-01 12:35:00,81.5,35.0,29.67,NE,45,1.1,4.0,19,0.00,,,0.00,WUHU216HW,2013-05-01 19:35:00,
2013-05-01 12:40:00,81.9,33.7,29.68,North,0,1.6,4.0,18,0.00,,,0.00,WUHU216HW,2013-05-01 19:40:00,
2013-05-01 12:45:00,82.3,33.9,29.67,ENE,68,0.7,3.4,18,0.00,,,0.00,WUHU216HW,2013-05-01 19:45:00,
2013-05-01 12:50:00,82.6,34.2,29.67,NE,45,3.4,3.4,18,0.00,,,0.00,WUHU216HW,2013-05-01 19:50:00,
2013-05-01 12:55:00,83.0,34.5,29.67,West,270,1.1,3.4,18,0.00,,,0.00,WUHU216HW,2013-05-01 19:55:00,
2013-05-01 13:00:00,83.2,34.7,29.67,WNW,293,0.9,3.4,18,0.00,,,0.00,WUHU216HW,2013-05-01 20:00:00,
2013-05-01 13:05:00,83.2,33.0,29.67,WNW,293,0.7,3.4,17,0.00,,,0.00,WUHU216HW,2013-05-01 20:05:00,
2013-05-01 13:10:00,83.2,33.0,29.67,SSE,158,0.4,3.6,17,0.00,,,0.00,WUHU216HW,2013-05-01 20:10:00,
2013-05-01 13:15:00,83.2,33.0,29.67,SSE,158,1.1,3.6,17,0.00,,,0.00,WUHU216HW,2013-05-01 20:15:00,
2013-05-01 13:20:00,83.2,33.0,29.67,WNW,293,0.4,3.1,17,0.00,,,0.00,WUHU216HW,2013-05-01 20:20:00,
2013-05-01 13:25:00,83.2,33.0,29.67,SSW,203,1.1,3.1,17,0.00,,,0.00,WUHU216HW,2013-05-01 20:25:00,
2013-05-01 13:30:00,83.5,34.9,29.67,North,0,0.7,4.0,18,0.00,,,0.00,WUHU216HW,2013-05-01 20:30:00,
2013-05-01 13:35:00,84.2,35.5,29.67,SSW,203,0.0,4.3,18,0.00,,,0.00,WUHU216HW,2013-05-01 20:35:00,
2013-05-01 13:40:00,84.6,35.7,29.67,North,0,2.0,4.3,18,0.00,,,0.00,WUHU216HW,2013-05-01 20:40:00,
2013-05-01 13:45:00,84.8,34.2,29.67,SE,135,0.7,2.2,17,0.00,,,0.00,WUHU216HW,2013-05-01 20:45:00,
2013-05-01 13:50:00,84.6,32.3,29.67,SSE,158,1.3,2.5,16,0.00,,,0.00,WUHU216HW,2013-05-01 20:50:00,
2013-05-01 13:55:00,84.6,34.0,29.67,North,0,2.0,2.5,17,0.00,,,0.00,WUHU216HW,2013-05-01 20:55:00,
2013-05-01 14:00:00,84.6,32.3,29.67,WSW,248,0.9,2.5,16,0.00,,,0.00,WUHU216HW,2013-05-01 21:00:00,
2013-05-01 14:05:00,84.6,34.0,29.67,SW,225,1.6,2.5,17,0.00,,,0.00,WUHU216HW,2013-05-01 21:05:00,
2013-05-01 14:10:00,84.4,33.9,29.67,NW,315,1.8,2.9,17,0.00,,,0.00,WUHU216HW,2013-05-01 21:10:00,
2013-05-01 14:15:00,84.6,32.3,29.67,NW,315,0.9,2.9,16,0.00,,,0.00,WUHU216HW,2013-05-01 21:15:00,
2013-05-01 14:20:00,84.4,32.2,29.67,NNE,23,0.7,2.9,16,0.00,,,0.00,WUHU216HW,2013-05-01 21:20:00,
2013-05-01 14:25:00,84.6,34.0,29.67,NNE,23,0.4,4.0,17,0.00,,,0.00,WUHU216HW,2013-05-01 21:25:00,
2013-05-01 14:30:00,84.6,34.0,29.67,NW,315,0.4,4.0,17,0.00,,,0.00,WUHU216HW,2013-05-01 21:30:00,
2013-05-01 14:35:00,85.0,34.3,29.67,North,0,1.8,2.9,17,0.00,,,0.00,WUHU216HW,2013-05-01 21:35:00,
2013-05-01 14:40:00,85.0,32.6,29.67,SE,135,0.2,2.9,16,0.00,,,0.00,WUHU216HW,2013-05-01 21:40:00,
2013-05-01 14:45:00,85.0,32.6,29.67,WNW,293,0.2,3.6,16,0.00,,,0.00,WUHU216HW,2013-05-01 21:45:00,
2013-05-01 14:50:00,84.6,32.3,29.67,SW,225,1.8,3.6,16,0.00,,,0.00,WUHU216HW,2013-05-01 21:50:00,
2013-05-01 14:55:00,84.6,34.0,29.67,North,0,1.3,3.4,17,0.00,,,0.00,WUHU216HW,2013-05-01 21:55:00,
2013-05-01 15:00:00,85.0,34.3,29.67,NW,315,0.2,3.4,17,0.00,,,0.00,WUHU216HW,2013-05-01 22:00:00,
2013-05-01 15:05:00,85.0,34.3,29.67,SSE,158,2.5,2.5,17,0.00,,,0.00,WUHU216HW,2013-05-01 22:05:00,
2013-05-01 15:10:00,85.0,34.3,29.67,ESE,113,0.4,2.7,17,0.00,,,0.00,WUHU216HW,2013-05-01 22:10:00,
2013-05-01 15:15:00,84.8,34.2,29.67,NNW,338,0.9,2.7,17,0.00,,,0.00,WUHU216HW,2013-05-01 22:15:00,
2013-05-01 15:20:00,84.8,34.2,29.67,NW,315,1.1,2.5,17,0.00,,,0.00,WUHU216HW,2013-05-01 22:20:00,
2013-05-01 15:25:00,85.0,34.3,29.66,NNW,338,2.2,3.1,17,0.00,,,0.00,WUHU216HW,2013-05-01 22:25:00,
2013-05-01 15:30:00,85.3,34.7,29.66,South,180,0.0,3.1,17,0.00,,,0.00,WUHU216HW,2013-05-01 22:30:00,
2013-05-01 15:35:00,85.1,34.5,29.66,North,0,1.3,2.9,17,0.00,,,0.00,WUHU216HW,2013-05-01 22:35:00,
2013-05-01 15:40:00,85.1,36.2,29.66,North,0,2.7,2.7,18,0.00,,,0.00,WUHU216HW,2013-05-01 22:40:00,
2013-05-01 15:45:00,85.3,36.4,29.66,NW,315,0.4,2.7,18,0.00,,,0.00,WUHU216HW,2013-05-01 22:45:00,
2013-05-01 15:50:00,85.3,36.4,29.66,NNE,23,1.8,2.5,18,0.00,,,0.00,WUHU216HW,2013-05-01 22:50:00,
2013-05-01 15:55:00,85.3,36.4,29.66,North,0,4.0,4.3,18,0.00,,,0.00,WUHU216HW,2013-05-01 22:55:00,
2013-05-01 16:00:00,85.5,36.5,29.66,NNE,23,2.0,4.3,18,0.00,,,0.00,WUHU216HW,2013-05-01 23:00:00,
2013-05-01 16:05:00,85.5,36.5,29.66,NE,45,1.1,4.0,18,0.00,,,0.00,WUHU216HW,2013-05-01 23:05:00,
2013-05-01 16:10:00,85.7,36.6,29.66,North,0,0.7,2.9,18,0.00,,,0.00,WUHU216HW,2013-05-01 23:10:00,
2013-05-01 16:15:00,85.7,36.6,29.66,NE,45,1.1,2.5,18,0.00,,,0.00,WUHU216HW,2013-05-01 23:15:00,
2013-05-01 16:20:00,85.7,36.6,29.66,NNE,23,1.1,2.2,18,0.00,,,0.00,WUHU216HW,2013-05-01 23:20:00,
2013-05-01 16:25:00,85.7,36.6,29.66,North,0,2.0,2.5,18,0.00,,,0.00,WUHU216HW,2013-05-01 23:25:00,
2013-05-01 16:30:00,85.7,36.6,29.66,North,0,0.7,3.4,18,0.00,,,0.00,WUHU216HW,2013-05-01 23:30:00,
2013-05-01 16:35:00,85.7,36.6,29.66,NNE,23,0.0,3.4,18,0.00,,,0.00,WUHU216HW,2013-05-01 23:35:00,
2013-05-01 16:40:00,85.5,36.5,29.67,South,180,0.0,1.3,18,0.00,,,0.00,WUHU216HW,2013-05-01 23:40:00,
2013-05-01 16:45:00,85.3,36.4,29.67,North,0,0.9,2.9,18,0.00,,,0.00,WUHU216HW,2013-05-01 23:45:00,
2013-05-01 16:50:00,85.3,36.4,29.66,North,0,1.1,2.9,18,0.00,,,0.00,WUHU216HW,2013-05-01 23:50:00,
2013-05-01 16:55:00,85.3,38.1,29.66,NNE,23,0.7,2.2,19,0.00,,,0.00,WUHU216HW,2013-05-01 23:55:00,
2013-05-01 17:00:00,85.3,36.4,29.66,WSW,248,0.4,2.2,18,0.00,,,0.00,WUHU216HW,2013-05-02 00:00:00,
2013-05-01 17:05:00,85.1,36.2,29.66,NNE,23,1.8,1.8,18,0.00,,,0.00,WUHU216HW,2013-05-02 00:05:00,
2013-05-01 17:10:00,85.0,37.7,29.67,North,0,2.2,3.6,19,0.00,,,0.00,WUHU216HW,2013-05-02 00:10:00,
2013-05-01 17:15:00,85.1,37.9,29.67,WNW,293,0.2,3.6,19,0.00,,,0.00,WUHU216HW,2013-05-02 00:15:00,
2013-05-01 17:20:00,85.0,36.0,29.67,WSW,248,0.4,1.8,18,0.00,,,0.00,WUHU216HW,2013-05-02 00:20:00,
2013-05-01 17:25:00,84.8,37.6,29.67,North,0,0.2,1.6,19,0.00,,,0.00,WUHU216HW,2013-05-02 00:25:00,
2013-05-01 17:30:00,84.6,37.4,29.67,North,0,1.1,1.6,19,0.00,,,0.00,WUHU216HW,2013-05-02 00:30:00,
2013-05-01 17:35:00,84.4,37.4,29.67,North,0,1.3,3.8,19,0.00,,,0.00,WUHU216HW,2013-05-02 00:35:00,
2013-05-01 17:40:00,84.4,37.4,29.67,North,0,0.0,3.8,19,0.00,,,0.00,WUHU216HW,2013-05-02 00:40:00,
2013-05-01 17:45:00,84.4,37.4,29.67,South,180,0.2,2.5,19,0.00,,,0.00,WUHU216HW,2013-05-02 00:45:00,
2013-05-01 17:50:00,84.2,37.2,29.67,West,270,0.4,3.4,19,0.00,,,0.00,WUHU216HW,2013-05-02 00:50:00,
2013-05-01 17:55:00,84.1,37.0,29.67,North,0,0.4,3.4,19,0.00,,,0.00,WUHU216HW,2013-05-02 00:55:00,
2013-05-01 18:00:00,83.9,38.6,29.67,WSW,248,0.4,1.8,20,0.00,,,0.00,WUHU216HW,2013-05-02 01:00:00,
2013-05-01 18:05:00,83.9,39.7,29.67,WSW,248,0.0,1.8,21,0.00,,,0.00,WUHU216HW,2013-05-02 01:05:00,
2013-05-01 18:10:00,83.5,39.3,29.67,WSW,248,0.9,1.8,21,0.00,,,0.00,WUHU216HW,2013-05-02 01:10:00,
2013-05-01 18:15:00,83.3,39.3,29.67,WSW,248,0.4,1.8,21,0.00,,,0.00,WUHU216HW,2013-05-02 01:15:00,
2013-05-01 18:20:00,83.2,39.1,29.68,WSW,248,0.2,1.3,21,0.00,,,0.00,WUHU216HW,2013-05-02 01:20:00,
2013-05-01 18:25:00,83.2,39.1,29.67,West,270,0.2,1.3,21,0.00,,,0.00,WUHU216HW,2013-05-02 01:25:00,
2013-05-01 18:30:00,83.2,39.1,29.68,West,270,0.4,0.7,21,0.00,,,0.00,WUHU216HW,2013-05-02 01:30:00,
2013-05-01 18:35:00,82.8,38.8,29.68,West,270,0.0,1.6,21,0.00,,,0.00,WUHU216HW,2013-05-02 01:35:00,
2013-05-01 18:40:00,82.8,38.8,29.68,South,180,0.4,1.6,21,0.00,,,0.00,WUHU216HW,2013-05-02 01:40:00,
2013-05-01 18:45:00,82.6,38.6,29.68,South,180,0.4,1.6,21,0.00,,,0.00,WUHU216HW,2013-05-02 01:45:00,
2013-05-01 18:50:00,82.4,38.5,29.68,South,180,0.0,0.4,21,0.00,,,0.00,WUHU216HW,2013-05-02 01:50:00,
2013-05-01 18:55:00,82.3,39.4,29.68,NNW,338,0.4,0.9,22,0.00,,,0.00,WUHU216HW,2013-05-02 01:55:00,
2013-05-01 19:00:00,82.1,39.2,29.68,NNW,338,1.1,1.8,22,0.00,,,0.00,WUHU216HW,2013-05-02 02:00:00,
2013-05-01 19:05:00,81.7,39.0,29.69,SE,135,0.4,1.8,22,0.00,,,0.00,WUHU216HW,2013-05-02 02:05:00,
2013-05-01 19:10:00,81.5,38.8,29.69,North,0,0.0,1.3,22,0.00,,,0.00,WUHU216HW,2013-05-02 02:10:00,
2013-05-01 19:15:00,81.4,38.7,29.69,North,0,0.7,1.8,22,0.00,,,0.00,WUHU216HW,2013-05-02 02:15:00,
2013-05-01 19:20:00,81.0,38.3,29.69,NW,315,0.0,1.8,22,0.00,,,0.00,WUHU216HW,2013-05-02 02:20:00,
2013-05-01 19:25:00,81.0,38.3,29.69,NW,315,0.0,0.7,22,0.00,,,0.00,WUHU216HW,2013-05-02 02:25:00,
2013-05-01 19:30:00,80.6,38.1,29.69,NW,315,0.0,0.7,22,0.00,,,0.00,WUHU216HW,2013-05-02 02:30:00,
2013-05-01 19:35:00,80.5,37.9,29.69,NW,315,0.0,0.0,22,0.00,,,0.00,WUHU216HW,2013-05-02 02:35:00,
2013-05-01 19:40:00,80.3,37.8,29.69,NW,315,0.0,0.0,22,0.00,,,0.00,WUHU216HW,2013-05-02 02:40:00,
2013-05-01 19:45:00,79.9,38.5,29.69,NW,315,0.2,0.2,23,0.00,,,0.00,WUHU216HW,2013-05-02 02:45:00,
2013-05-01 19:50:00,79.6,38.2,29.69,NW,315,0.0,0.2,23,0.00,,,0.00,WUHU216HW,2013-05-02 02:50:00,
2013-05-01 19:55:00,79.4,38.0,29.70,NW,315,0.0,0.2,23,0.00,,,0.00,WUHU216HW,2013-05-02 02:55:00,
2013-05-01 20:00:00,78.8,37.5,29.70,NW,315,0.0,0.0,23,0.00,,,0.00,WUHU216HW,2013-05-02 03:00:00,
2013-05-01 20:05:00,78.5,37.3,29.70,NW,315,0.0,0.0,23,0.00,,,0.00,WUHU216HW,2013-05-02 03:05:00,
2013-05-01 20:10:00,78.1,36.9,29.70,WSW,248,0.4,0.9,23,0.00,,,0.00,WUHU216HW,2013-05-02 03:10:00,
2013-05-01 20:15:00,77.8,37.7,29.70,WSW,248,0.0,0.9,24,0.00,,,0.00,WUHU216HW,2013-05-02 03:15:00,
2013-05-01 20:20:00,77.4,38.4,29.70,SW,225,0.0,0.9,25,0.00,,,0.00,WUHU216HW,2013-05-02 03:20:00,
2013-05-01 20:25:00,76.9,38.0,29.70,SW,225,0.9,0.9,25,0.00,,,0.00,WUHU216HW,2013-05-02 03:25:00,
2013-05-01 20:30:00,76.1,38.4,29.70,WNW,293,0.0,1.1,26,0.00,,,0.00,WUHU216HW,2013-05-02 03:30:00,
2013-05-01 20:35:00,75.6,38.0,29.70,WSW,248,0.2,1.1,26,0.00,,,0.00,WUHU216HW,2013-05-02 03:35:00,
2013-05-01 20:40:00,74.9,38.3,29.70,WSW,248,0.2,0.9,27,0.00,,,0.00,WUHU216HW,2013-05-02 03:40:00,
2013-05-01 20:45:00,74.5,39.1,29.70,WSW,248,0.0,0.9,28,0.00,,,0.00,WUHU216HW,2013-05-02 03:45:00,
2013-05-01 20:50:00,74.2,38.8,29.70,West,270,0.7,1.3,28,0.00,,,0.00,WUHU216HW,2013-05-02 03:50:00,
2013-05-01 20:55:00,73.6,39.3,29.70,SSW,203,1.3,1.3,29,0.00,,,0.00,WUHU216HW,2013-05-02 03:55:00,
2013-05-01 21:00:00,73.1,38.9,29.71,SW,225,0.2,1.3,29,0.00,,,0.00,WUHU216HW,2013-05-02 04:00:00,
2013-05-01 21:01:00,73.1,38.9,29.71,SW,225,0.2,1.3,29,0.00,,,0.00,WUHU216HW,2013-05-02 04:01:00,
2013-05-01 21:06:00,72.7,38.5,29.71,SW,225,0.0,0.9,29,0.00,,,0.00,WUHU216HW,2013-05-02 04:06:00,
2013-05-01 21:11:00,72.4,38.3,29.71,SW,225,0.0,0.4,29,0.00,,,0.00,WUHU216HW,2013-05-02 04:11:00,
2013-05-01 21:16:00,72.2,38.1,29.71,SW,225,0.0,0.4,29,0.00,,,0.00,WUHU216HW,2013-05-02 04:16:00,
2013-05-01 21:21:00,71.8,38.9,29.71,SW,225,0.9,0.9,30,0.00,,,0.00,WUHU216HW,2013-05-02 04:21:00,
2013-05-01 21:26:00,71.3,38.3,29.72,SW,225,0.2,0.9,30,0.00,,,0.00,WUHU216HW,2013-05-02 04:26:00,
2013-05-01 21:31:00,71.1,39.0,29.71,WSW,248,0.4,0.9,31,0.00,,,0.00,WUHU216HW,2013-05-02 04:31:00,
2013-05-01 21:36:00,70.7,38.6,29.72,SW,225,1.1,1.1,31,0.00,,,0.00,WUHU216HW,2013-05-02 04:36:00,
2013-05-01 21:41:00,70.6,38.4,29.72,SW,225,0.2,1.1,31,0.00,,,0.00,WUHU216HW,2013-05-02 04:41:00,
2013-05-01 21:46:00,70.2,38.2,29.72,SW,225,0.0,1.1,31,0.00,,,0.00,WUHU216HW,2013-05-02 04:46:00,
2013-05-01 21:51:00,70.2,38.2,29.72,SW,225,0.0,0.4,31,0.00,,,0.00,WUHU216HW,2013-05-02 04:51:00,
2013-05-01 21:56:00,70.0,38.0,29.72,SW,225,0.0,0.0,31,0.00,,,0.00,WUHU216HW,2013-05-02 04:56:00,
2013-05-01 22:01:00,69.8,37.8,29.72,SW,225,0.4,0.4,31,0.00,,,0.00,WUHU216HW,2013-05-02 05:01:00,
2013-05-01 22:06:00,69.5,38.3,29.72,SW,225,0.2,0.9,32,0.00,,,0.00,WUHU216HW,2013-05-02 05:06:00,
2013-05-01 22:11:00,69.3,38.1,29.72,WSW,248,0.7,0.9,32,0.00,,,0.00,WUHU216HW,2013-05-02 05:11:00,
2013-05-01 22:16:00,69.1,37.9,29.72,West,270,0.0,0.9,32,0.00,,,0.00,WUHU216HW,2013-05-02 05:16:00,
2013-05-01 22:21:00,68.9,37.7,29.73,West,270,0.0,0.7,32,0.00,,,0.00,WUHU216HW,2013-05-02 05:21:00,
2013-05-01 22:26:00,68.6,37.5,29.73,West,270,0.2,0.4,32,0.00,,,0.00,WUHU216HW,2013-05-02 05:26:00,
2013-05-01 22:31:00,68.2,37.1,29.73,West,270,0.0,0.4,32,0.00,,,0.00,WUHU216HW,2013-05-02 05:31:00,
2013-05-01 22:36:00,67.9,36.8,29.73,West,270,0.7,0.7,32,0.00,,,0.00,WUHU216HW,2013-05-02 05:36:00,
2013-05-01 22:41:00,67.7,36.6,29.73,West,270,0.0,0.7,32,0.00,,,0.00,WUHU216HW,2013-05-02 05:41:00,
2013-05-01 22:46:00,67.3,37.1,29.73,West,270,0.7,0.7,33,0.00,,,0.00,WUHU216HW,2013-05-02 05:46:00,
2013-05-01 22:51:00,67.0,36.8,29.73,West,270,0.4,0.9,33,0.00,,,0.00,WUHU216HW,2013-05-02 05:51:00,
2013-05-01 22:56:00,66.8,36.6,29.74,West,270,0.0,0.9,33,0.00,,,0.00,WUHU216HW,2013-05-02 05:56:00,
2013-05-01 23:01:00,66.6,36.5,29.74,West,270,0.0,0.4,33,0.00,,,0.00,WUHU216HW,2013-05-02 06:01:00,
2013-05-01 23:06:00,66.2,36.2,29.74,West,270,0.0,0.0,33,0.00,,,0.00,WUHU216HW,2013-05-02 06:06:00,
2013-05-01 23:11:00,66.1,36.0,29.74,West,270,0.0,0.0,33,0.00,,,0.00,WUHU216HW,2013-05-02 06:11:00,
2013-05-01 23:16:00,65.7,35.7,29.74,West,270,0.0,0.0,33,0.00,,,0.00,WUHU216HW,2013-05-02 06:16:00,
2013-05-01 23:21:00,65.5,35.6,29.74,West,270,0.0,0.0,33,0.00,,,0.00,WUHU216HW,2013-05-02 06:21:00,
2013-05-01 23:26:00,65.2,35.2,29.74,West,270,0.0,0.0,33,0.00,,,0.00,WUHU216HW,2013-05-02 06:26:00,
2013-05-01 23:31:00,64.8,34.9,29.74,West,270,0.0,0.0,33,0.00,,,0.00,WUHU216HW,2013-05-02 06:31:00,
2013-05-01 23:36:00,64.6,34.8,29.74,West,270,0.0,0.0,33,0.00,,,0.00,WUHU216HW,2013-05-02 06:36:00,
2013-05-01 23:41:00,64.4,34.6,29.75,West,270,0.0,0.0,33,0.00,,,0.00,WUHU216HW,2013-05-02 06:41:00,
2013-05-01 23:46:00,64.3,35.1,29.74,West,270,0.0,0.0,34,0.00,,,0.00,WUHU216HW,2013-05-02 06:46:00,
2013-05-01 23:51:00,63.9,34.8,29.75,WSW,248,0.0,0.0,34,0.00,,,0.00,WUHU216HW,2013-05-02 06:51:00,
2013-05-01 23:56:00,63.7,34.7,29.74,WSW,248,0.0,0.0,34,0.00,,,0.00,WUHU216HW,2013-05-02 06:56:00,